Time;durP1;ratioP1;P1;durP2;ratioP2;P2;SDS_P1;SDS_P2;PMS_P1;PMS_P2;Temp;Humidity;BMP_temperature;BMP_pressure;BME280_temperature;BME280_humidity;BME280_pressure;Samples;Min_cycle;Max_cycle;Signal;HPM_P1;HPM_P2
2021/12/24 00:01:08;;;;;;;9.23;6.83;;;;;;;;;;5100706;28;20539;-66
2021/12/24 00:03:37;;;;;;;14.90;7.50;;;;;;;;;;5101441;28;20205;-66
2021/12/24 00:06:05;;;;;;;10.67;6.73;;;;;;;;;;5101289;28;20209;-66
2021/12/24 00:08:35;;;;;;;12.83;8.23;;;;;;;;;;5101139;28;20701;-66
2021/12/24 00:11:03;;;;;;;16.00;7.87;;;;;;;;;;5101257;28;20205;-66
2021/12/24 00:13:34;;;;;;;10.87;7.27;;;;;;;;;;5100896;28;20448;-66
2021/12/24 00:16:09;;;;;;;12.10;7.47;;;;;;;;;;5100655;28;20688;-66
2021/12/24 00:18:45;;;;;;;10.87;7.50;;;;;;;;;;5102361;28;20236;-66
2021/12/24 00:35:15;;;;;;;13.47;6.93;;;;;;;;;;5100759;28;20458;-66
2021/12/24 00:37:44;;;;;;;11.80;7.57;;;;;;;;;;5100369;28;20447;-66
2021/12/24 00:40:18;;;;;;;9.30;6.50;;;;;;;;;;5100410;28;20607;-66
2021/12/24 00:42:47;;;;;;;13.07;7.33;;;;;;;;;;5100669;28;20446;-66
2021/12/24 00:45:16;;;;;;;12.73;7.63;;;;;;;;;;5100360;28;20453;-66
2021/12/24 00:47:45;;;;;;;15.17;9.03;;;;;;;;;;5100146;28;20480;-66
2021/12/24 00:50:16;;;;;;;13.23;7.57;;;;;;;;;;5100439;28;20443;-66
2021/12/24 00:52:48;;;;;;;11.80;7.67;;;;;;;;;;5100479;28;20448;-66
2021/12/24 00:55:18;;;;;;;11.20;8.03;;;;;;;;;;5100355;28;20448;-66
2021/12/24 00:57:47;;;;;;;12.90;7.90;;;;;;;;;;5099923;28;20448;-66
2021/12/24 01:00:17;;;;;;;10.93;7.67;;;;;;;;;;5099596;28;20862;-66
2021/12/24 01:02:45;;;;;;;15.03;8.00;;;;;;;;;;5099420;28;20447;-66
2021/12/24 01:05:14;;;;;;;11.97;8.27;;;;;;;;;;5100216;28;20448;-66
2021/12/24 01:07:44;;;;;;;15.30;8.50;;;;;;;;;;5099583;28;20488;-66
2021/12/24 01:10:13;;;;;;;11.80;8.77;;;;;;;;;;5100102;28;20450;-66
2021/12/24 01:12:43;;;;;;;12.63;8.90;;;;;;;;;;5099519;28;20444;-66
2021/12/24 01:15:13;;;;;;;12.20;8.00;;;;;;;;;;5099861;28;20452;-66
2021/12/24 01:17:45;;;;;;;13.87;7.93;;;;;;;;;;5100087;28;20440;-66
2021/12/24 01:20:22;;;;;;;10.53;7.80;;;;;;;;;;5113451;28;20485;-66
2021/12/24 01:25:51;;;;;;;9.17;6.50;;;;;;;;;;5099778;28;20450;-66
2021/12/24 01:39:26;;;;;;;10.90;7.77;;;;;;;;;;5099371;28;20487;-66
2021/12/24 01:44:41;;;;;;;11.03;7.30;;;;;;;;;;5099255;28;20444;-66
2021/12/24 01:47:09;;;;;;;10.67;6.97;;;;;;;;;;5099307;28;20440;-66
2021/12/24 01:49:37;;;;;;;8.90;7.03;;;;;;;;;;5099205;28;20463;-66
2021/12/24 01:52:06;;;;;;;10.60;6.80;;;;;;;;;;5099325;28;20440;-66
2021/12/24 01:54:34;;;;;;;8.93;7.00;;;;;;;;;;5099323;28;20447;-66
2021/12/24 01:57:04;;;;;;;12.57;7.60;;;;;;;;;;5099100;28;20451;-66
2021/12/24 01:59:32;;;;;;;8.67;7.13;;;;;;;;;;5098829;28;21095;-66
2021/12/24 02:02:01;;;;;;;13.80;6.53;;;;;;;;;;5098503;28;20545;-66
2021/12/24 02:04:29;;;;;;;10.90;7.00;;;;;;;;;;5098916;28;20444;-66
2021/12/24 02:06:57;;;;;;;8.47;6.73;;;;;;;;;;5098917;28;20475;-66
2021/12/24 02:09:25;;;;;;;9.87;7.10;;;;;;;;;;5098657;28;20467;-66
2021/12/24 02:11:53;;;;;;;14.07;7.47;;;;;;;;;;5098497;28;20814;-66
2021/12/24 02:14:24;;;;;;;10.90;7.27;;;;;;;;;;5098194;28;20954;-66
2021/12/24 02:17:16;;;;;;;10.43;7.33;;;;;;;;;;5098097;28;20440;-66
2021/12/24 02:28:24;;;;;;;9.67;6.67;;;;;;;;;;5098248;28;20962;-66
2021/12/24 02:30:53;;;;;;;9.27;6.50;;;;;;;;;;5086754;28;20441;-66
2021/12/24 02:33:21;;;;;;;10.10;7.00;;;;;;;;;;5098652;28;20522;-66
2021/12/24 02:35:49;;;;;;;10.33;6.57;;;;;;;;;;5098287;28;20435;-66
2021/12/24 02:38:18;;;;;;;9.90;7.50;;;;;;;;;;5098250;28;20459;-66
2021/12/24 02:40:46;;;;;;;11.60;6.97;;;;;;;;;;5098340;28;20487;-66
2021/12/24 02:43:18;;;;;;;10.10;6.93;;;;;;;;;;5098061;28;20450;-66
2021/12/24 02:45:48;;;;;;;12.77;6.50;;;;;;;;;;5098089;28;20448;-66
2021/12/24 02:54:11;;;;;;;11.17;6.77;;;;;;;;;;5055354;28;20446;-66
2021/12/24 02:56:45;;;;;;;9.97;6.87;;;;;;;;;;5088899;28;21048;-66
2021/12/24 02:59:14;;;;;;;10.17;6.80;;;;;;;;;;5098014;28;20464;-66
2021/12/24 03:01:43;;;;;;;8.97;6.57;;;;;;;;;;5097659;28;20483;-66
2021/12/24 03:04:12;;;;;;;11.20;6.57;;;;;;;;;;5097872;28;20443;-66
2021/12/24 03:06:41;;;;;;;10.53;6.30;;;;;;;;;;5097698;28;20510;-66
2021/12/24 03:09:13;;;;;;;12.30;6.23;;;;;;;;;;5097554;28;20493;-66
2021/12/24 03:11:41;;;;;;;14.63;6.73;;;;;;;;;;5097909;28;20440;-66
2021/12/24 03:14:10;;;;;;;10.90;6.90;;;;;;;;;;5097603;28;21043;-66
2021/12/24 03:16:39;;;;;;;10.30;6.10;;;;;;;;;;5097394;28;20446;-66
2021/12/24 03:19:09;;;;;;;12.97;6.40;;;;;;;;;;5090598;28;20552;-66
2021/12/24 03:21:45;;;;;;;9.40;5.97;;;;;;;;;;5105480;28;20480;-66
2021/12/24 03:26:59;;;;;;;7.97;5.63;;;;;;;;;;5097393;28;20443;-66
2021/12/24 03:29:27;;;;;;;8.53;6.10;;;;;;;;;;5097784;28;20466;-66
2021/12/24 03:31:55;;;;;;;8.57;6.27;;;;;;;;;;5097074;28;20934;-66
2021/12/24 03:34:23;;;;;;;10.87;6.57;;;;;;;;;;5097585;28;20443;-66
2021/12/24 03:36:51;;;;;;;9.50;6.03;;;;;;;;;;5097790;28;20443;-66
2021/12/24 03:39:21;;;;;;;10.43;6.13;;;;;;;;;;5097396;28;20826;-66
2021/12/24 03:41:49;;;;;;;10.17;6.17;;;;;;;;;;5097503;28;20479;-66
2021/12/24 03:44:18;;;;;;;12.03;6.60;;;;;;;;;;5097369;28;20439;-66
2021/12/24 03:46:55;;;;;;;7.37;5.93;;;;;;;;;;5097001;28;20443;-66
2021/12/24 03:49:33;;;;;;;6.83;5.47;;;;;;;;;;5097598;28;20949;-66
2021/12/24 03:52:15;;;;;;;10.87;6.10;;;;;;;;;;5093915;28;20443;-66
2021/12/24 03:54:57;;;;;;;10.90;5.60;;;;;;;;;;5097055;28;20436;-66
2021/12/24 03:57:26;;;;;;;10.93;6.23;;;;;;;;;;5097365;28;20501;-66
2021/12/24 03:59:55;;;;;;;9.13;6.10;;;;;;;;;;5096723;28;20857;-66
2021/12/24 04:02:23;;;;;;;11.20;6.63;;;;;;;;;;5097003;28;20482;-66
2021/12/24 04:04:51;;;;;;;10.83;6.23;;;;;;;;;;5097498;28;20436;-66
2021/12/24 04:07:19;;;;;;;8.53;6.17;;;;;;;;;;5097137;28;20475;-66
2021/12/24 04:09:58;;;;;;;13.23;6.37;;;;;;;;;;5097217;28;20455;-66
2021/12/24 04:12:26;;;;;;;7.73;5.87;;;;;;;;;;5096950;28;20432;-66
2021/12/24 04:14:54;;;;;;;10.13;6.00;;;;;;;;;;5096887;28;20438;-66
2021/12/24 04:17:22;;;;;;;12.17;6.10;;;;;;;;;;5096910;28;20946;-66
2021/12/24 04:25:32;;;;;;;9.17;5.17;;;;;;;;;;5097160;28;20467;-66
2021/12/24 04:28:00;;;;;;;9.43;6.27;;;;;;;;;;5096694;28;20542;-66
2021/12/24 04:30:35;;;;;;;11.13;6.43;;;;;;;;;;5096371;28;20446;-66
2021/12/24 04:33:14;;;;;;;10.20;5.87;;;;;;;;;;5096954;28;20942;-66
2021/12/24 04:35:46;;;;;;;8.57;5.63;;;;;;;;;;5096938;28;20447;-65
2021/12/24 04:38:36;;;;;;;8.60;5.63;;;;;;;;;;5097532;28;20977;-66
2021/12/24 04:52:17;;;;;;;10.40;5.33;;;;;;;;;;5100284;28;20441;-66
2021/12/24 05:03:03;;;;;;;7.00;5.20;;;;;;;;;;5087934;28;20486;-66
2021/12/24 05:05:43;;;;;;;9.70;5.33;;;;;;;;;;5100250;28;20444;-66
2021/12/24 05:10:56;;;;;;;5.93;4.73;;;;;;;;;;5100101;28;20443;-66
2021/12/24 05:13:25;;;;;;;7.83;5.97;;;;;;;;;;5100258;28;20454;-65
2021/12/24 05:16:02;;;;;;;10.20;6.37;;;;;;;;;;5099612;28;20450;-66
2021/12/24 05:18:47;;;;;;;10.63;6.27;;;;;;;;;;5100296;28;20467;-66
2021/12/24 05:24:00;;;;;;;6.27;5.23;;;;;;;;;;5100010;28;20445;-66
2021/12/24 05:26:28;;;;;;;8.07;4.93;;;;;;;;;;5099728;28;20949;-65
2021/12/24 05:28:58;;;;;;;7.20;4.40;;;;;;;;;;5099259;28;20460;-65
2021/12/24 05:31:26;;;;;;;9.67;5.67;;;;;;;;;;5099258;28;20443;-65
2021/12/24 05:33:54;;;;;;;8.87;6.23;;;;;;;;;;5099513;28;20448;-65
2021/12/24 05:36:22;;;;;;;9.97;6.33;;;;;;;;;;5099671;28;20448;-65
2021/12/24 05:38:50;;;;;;;7.33;4.90;;;;;;;;;;5099495;28;20467;-66
2021/12/24 05:41:21;;;;;;;7.43;4.87;;;;;;;;;;5099464;28;20481;-65
2021/12/24 05:43:49;;;;;;;9.73;5.23;;;;;;;;;;5099579;28;20450;-65
2021/12/24 05:46:18;;;;;;;7.93;5.43;;;;;;;;;;5098795;28;20530;-66
2021/12/24 05:48:46;;;;;;;8.63;5.20;;;;;;;;;;5099140;28;20510;-66
2021/12/24 05:51:14;;;;;;;9.43;5.67;;;;;;;;;;5099074;28;20443;-65
2021/12/24 05:53:42;;;;;;;8.53;5.23;;;;;;;;;;5098948;28;20443;-65
2021/12/24 05:56:10;;;;;;;9.17;6.03;;;;;;;;;;5098847;28;20805;-65
2021/12/24 05:58:38;;;;;;;8.13;5.70;;;;;;;;;;5099254;28;20471;-66
2021/12/24 06:01:06;;;;;;;8.13;6.20;;;;;;;;;;5097357;28;20462;-65
2021/12/24 06:03:36;;;;;;;11.30;5.80;;;;;;;;;;5096735;28;20463;-66
2021/12/24 06:06:04;;;;;;;9.13;5.90;;;;;;;;;;5091720;28;20472;-66
2021/12/24 06:08:32;;;;;;;10.90;4.70;;;;;;;;;;5096811;28;20461;-67
2021/12/24 06:11:04;;;;;;;8.47;4.90;;;;;;;;;;5095786;28;20805;-66
2021/12/24 06:13:33;;;;;;;8.13;4.97;;;;;;;;;;5096739;28;20477;-67
2021/12/24 06:16:01;;;;;;;5.97;4.63;;;;;;;;;;5094021;28;21041;-66
2021/12/24 06:18:30;;;;;;;6.80;4.97;;;;;;;;;;5096382;28;20460;-66
2021/12/24 06:21:03;;;;;;;5.30;4.80;;;;;;;;;;5097924;28;20526;-66
2021/12/24 06:23:31;;;;;;;7.97;5.40;;;;;;;;;;5097440;28;20475;-66
2021/12/24 06:26:00;;;;;;;8.27;5.37;;;;;;;;;;5095039;28;20926;-66
2021/12/24 06:28:28;;;;;;;5.17;4.33;;;;;;;;;;5096274;28;20470;-66
2021/12/24 06:30:56;;;;;;;10.63;5.50;;;;;;;;;;5093213;28;20519;-66
2021/12/24 06:33:24;;;;;;;9.27;5.77;;;;;;;;;;5094413;28;20965;-66
2021/12/24 06:35:54;;;;;;;10.83;5.53;;;;;;;;;;5093048;28;20773;-66
2021/12/24 06:38:24;;;;;;;9.23;4.90;;;;;;;;;;5096737;28;20966;-66
2021/12/24 06:40:52;;;;;;;5.53;4.60;;;;;;;;;;5091620;28;20451;-66
2021/12/24 06:43:20;;;;;;;12.87;5.80;;;;;;;;;;5094361;28;20475;-66
2021/12/24 06:45:49;;;;;;;8.60;5.33;;;;;;;;;;5097012;28;20436;-66
2021/12/24 06:48:17;;;;;;;7.07;5.07;;;;;;;;;;5096929;28;20452;-66
2021/12/24 06:50:46;;;;;;;8.20;5.10;;;;;;;;;;5096880;28;20923;-66
2021/12/24 06:53:14;;;;;;;6.50;5.23;;;;;;;;;;5097261;28;20438;-66
2021/12/24 06:55:43;;;;;;;8.13;4.97;;;;;;;;;;5096828;28;20439;-67
2021/12/24 06:58:11;;;;;;;7.97;5.50;;;;;;;;;;5096723;28;20793;-66
2021/12/24 07:00:39;;;;;;;9.40;5.50;;;;;;;;;;5095820;28;20882;-67
2021/12/24 07:03:07;;;;;;;8.73;5.80;;;;;;;;;;5096783;28;20538;-66
2021/12/24 07:05:35;;;;;;;6.37;4.93;;;;;;;;;;5097618;28;20471;-66
2021/12/24 07:08:03;;;;;;;7.07;5.03;;;;;;;;;;5097384;28;20491;-67
2021/12/24 07:10:31;;;;;;;8.07;5.47;;;;;;;;;;5097020;28;20451;-66
2021/12/24 07:13:01;;;;;;;8.63;5.10;;;;;;;;;;5096995;28;20515;-66
2021/12/24 07:15:29;;;;;;;7.47;5.00;;;;;;;;;;5097075;28;20478;-66
2021/12/24 07:17:57;;;;;;;5.90;4.60;;;;;;;;;;5096961;28;20509;-66
2021/12/24 07:20:25;;;;;;;8.83;5.07;;;;;;;;;;5093324;28;20442;-67
2021/12/24 07:22:53;;;;;;;8.97;5.37;;;;;;;;;;5088540;28;20539;-66
2021/12/24 07:25:21;;;;;;;9.50;5.33;;;;;;;;;;5094918;28;20443;-66
2021/12/24 07:27:49;;;;;;;7.87;4.93;;;;;;;;;;5091011;28;20455;-67
2021/12/24 07:30:20;;;;;;;5.00;4.23;;;;;;;;;;5095085;28;20527;-67
2021/12/24 07:32:48;;;;;;;9.40;5.03;;;;;;;;;;5090820;28;20444;-67
2021/12/24 07:35:16;;;;;;;9.00;5.30;;;;;;;;;;5088295;28;20576;-67
2021/12/24 07:37:44;;;;;;;6.43;4.87;;;;;;;;;;5097180;28;20748;-66
2021/12/24 07:40:15;;;;;;;7.33;4.43;;;;;;;;;;5096531;28;20800;-66
2021/12/24 07:42:43;;;;;;;9.83;5.33;;;;;;;;;;5097011;28;20485;-67
2021/12/24 07:45:11;;;;;;;6.70;4.87;;;;;;;;;;5095305;28;20448;-67
2021/12/24 07:47:43;;;;;;;8.27;5.37;;;;;;;;;;5093674;28;20432;-67
2021/12/24 07:51:57;;;;;;;7.97;4.80;;;;;;;;;;5096254;28;20579;-66
2021/12/24 07:53:08;;;;;;;7.43;4.70;;;;;;;;;;5090900;28;20205;-66
2021/12/24 07:55:36;;;;;;;7.73;5.37;;;;;;;;;;5094160;28;20677;-66
2021/12/24 07:58:05;;;;;;;10.20;5.20;;;;;;;;;;5094287;28;20217;-66
2021/12/24 08:00:33;;;;;;;7.70;5.30;;;;;;;;;;5101027;28;20873;-67
2021/12/24 08:03:03;;;;;;;10.53;5.13;;;;;;;;;;5104728;28;20267;-66
2021/12/24 08:05:33;;;;;;;10.70;5.70;;;;;;;;;;5096618;28;20237;-66
2021/12/24 08:08:01;;;;;;;9.07;5.20;;;;;;;;;;5096255;28;20340;-66
2021/12/24 08:10:30;;;;;;;8.57;4.97;;;;;;;;;;5096873;28;20201;-67
2021/12/24 08:12:58;;;;;;;9.13;5.97;;;;;;;;;;5090315;28;20289;-66
2021/12/24 08:15:26;;;;;;;13.90;6.63;;;;;;;;;;5097433;28;20207;-66
2021/12/24 08:17:54;;;;;;;8.97;5.70;;;;;;;;;;5093915;28;20239;-66
2021/12/24 08:20:26;;;;;;;9.83;5.90;;;;;;;;;;5101554;28;20205;-66
2021/12/24 08:22:54;;;;;;;10.33;6.30;;;;;;;;;;5092244;28;20227;-66
2021/12/24 08:25:23;;;;;;;13.17;6.00;;;;;;;;;;5091844;28;20439;-66
2021/12/24 08:27:51;;;;;;;10.23;5.63;;;;;;;;;;5100027;28;20210;-66
2021/12/24 08:30:19;;;;;;;10.13;6.27;;;;;;;;;;5095907;28;20210;-66
2021/12/24 08:32:47;;;;;;;9.23;5.77;;;;;;;;;;5100316;28;20197;-66
2021/12/24 08:35:17;;;;;;;9.60;5.90;;;;;;;;;;5100028;28;20214;-66
2021/12/24 08:37:46;;;;;;;9.77;6.17;;;;;;;;;;5092800;28;20205;-66
2021/12/24 08:40:14;;;;;;;9.97;6.03;;;;;;;;;;5099697;28;20435;-66
2021/12/24 08:42:42;;;;;;;11.57;5.77;;;;;;;;;;5099859;28;20447;-66
2021/12/24 08:45:11;;;;;;;10.13;6.07;;;;;;;;;;5097468;28;20451;-66
2021/12/24 08:47:39;;;;;;;8.33;5.17;;;;;;;;;;5099705;28;20446;-66
2021/12/24 08:50:08;;;;;;;9.37;5.80;;;;;;;;;;5099191;28;20930;-66
2021/12/24 08:52:36;;;;;;;9.17;6.23;;;;;;;;;;5099555;28;20440;-66
2021/12/24 08:55:06;;;;;;;9.50;6.00;;;;;;;;;;5099591;28;20439;-66
2021/12/24 08:57:34;;;;;;;10.13;6.10;;;;;;;;;;5099438;28;20458;-67
2021/12/24 09:00:03;;;;;;;11.87;6.03;;;;;;;;;;5098541;28;20474;-67
2021/12/24 09:02:31;;;;;;;9.40;6.07;;;;;;;;;;5106486;28;20440;-66
2021/12/24 09:05:00;;;;;;;12.07;5.40;;;;;;;;;;5103993;28;20543;-66
2021/12/24 09:07:28;;;;;;;15.57;9.57;;;;;;;;;;5092381;28;20239;-66
2021/12/24 09:09:56;;;;;;;9.07;6.83;;;;;;;;;;5095528;28;21034;-66
2021/12/24 09:12:25;;;;;;;10.43;6.27;;;;;;;;;;5097137;28;20212;-66
2021/12/24 09:14:53;;;;;;;8.17;5.57;;;;;;;;;;5104500;28;20439;-66
2021/12/24 09:17:22;;;;;;;9.07;6.23;;;;;;;;;;5104278;28;20203;-66
2021/12/24 09:19:51;;;;;;;10.33;6.07;;;;;;;;;;5099235;28;20228;-67
2021/12/24 09:22:23;;;;;;;10.93;5.80;;;;;;;;;;5105328;28;20209;-66
2021/12/24 09:24:53;;;;;;;11.50;6.73;;;;;;;;;;5104722;28;20225;-67
2021/12/24 09:27:21;;;;;;;9.00;5.57;;;;;;;;;;5104123;28;20196;-67
2021/12/24 09:29:50;;;;;;;12.70;5.63;;;;;;;;;;5104088;28;20221;-67
2021/12/24 09:32:19;;;;;;;9.23;6.23;;;;;;;;;;5099903;28;20229;-67
2021/12/24 09:34:46;;;;;;;12.43;6.57;;;;;;;;;;5098239;28;20209;-67
2021/12/24 09:37:14;;;;;;;10.90;6.23;;;;;;;;;;5095148;28;20281;-68
2021/12/24 09:39:42;;;;;;;10.30;6.77;;;;;;;;;;5096855;28;20222;-66
2021/12/24 09:42:10;;;;;;;8.87;5.80;;;;;;;;;;5098549;28;20201;-66
2021/12/24 09:44:38;;;;;;;10.90;6.53;;;;;;;;;;5098182;28;20600;-68
2021/12/24 09:47:08;;;;;;;9.30;5.77;;;;;;;;;;5098296;28;20215;-66
2021/12/24 09:49:36;;;;;;;7.93;6.30;;;;;;;;;;5093532;28;20221;-66
2021/12/24 09:52:05;;;;;;;10.07;5.90;;;;;;;;;;5095308;28;20201;-67
2021/12/24 09:54:32;;;;;;;10.13;6.97;;;;;;;;;;5095272;28;20574;-67
2021/12/24 09:57:01;;;;;;;11.97;7.07;;;;;;;;;;5096890;28;20668;-67
2021/12/24 09:59:29;;;;;;;9.33;6.53;;;;;;;;;;5098051;28;20703;-66
2021/12/24 10:01:58;;;;;;;10.43;7.33;;;;;;;;;;5089624;28;20684;-66
2021/12/24 10:04:28;;;;;;;12.43;7.00;;;;;;;;;;5093355;28;20308;-66
2021/12/24 10:06:59;;;;;;;11.40;7.07;;;;;;;;;;5095087;28;20668;-66
2021/12/24 10:09:30;;;;;;;14.40;6.87;;;;;;;;;;5089768;28;20221;-66
2021/12/24 10:11:59;;;;;;;11.80;7.53;;;;;;;;;;5089620;28;20213;-66
2021/12/24 10:14:32;;;;;;;13.10;7.77;;;;;;;;;;5098143;28;20202;-66
2021/12/24 10:17:01;;;;;;;12.50;7.83;;;;;;;;;;5093749;28;20252;-66
2021/12/24 10:19:30;;;;;;;12.17;7.73;;;;;;;;;;5098205;28;20228;-66
2021/12/24 10:21:59;;;;;;;12.23;7.07;;;;;;;;;;5097978;28;20216;-66
2021/12/24 10:24:27;;;;;;;14.50;7.30;;;;;;;;;;5098100;28;20741;-66
2021/12/24 10:26:56;;;;;;;12.70;7.33;;;;;;;;;;5097569;28;20208;-66
2021/12/24 10:29:29;;;;;;;10.47;6.97;;;;;;;;;;5097633;28;20222;-66
2021/12/24 10:31:59;;;;;;;12.83;8.03;;;;;;;;;;5097647;28;20214;-66
2021/12/24 10:34:27;;;;;;;8.97;6.97;;;;;;;;;;5097744;28;20201;-67
2021/12/24 10:37:05;;;;;;;13.30;7.63;;;;;;;;;;5096364;28;20223;-67
2021/12/24 10:39:35;;;;;;;11.37;7.93;;;;;;;;;;5097833;28;20229;-66
2021/12/24 10:42:04;;;;;;;13.00;7.73;;;;;;;;;;5097704;28;20209;-66
2021/12/24 10:44:33;;;;;;;12.60;8.00;;;;;;;;;;5097120;28;20228;-67
2021/12/24 10:47:02;;;;;;;15.00;8.20;;;;;;;;;;5096714;28;20609;-67
2021/12/24 10:55:11;;;;;;;14.20;8.67;;;;;;;;;;5096823;28;20216;-67
2021/12/24 10:57:40;;;;;;;12.43;8.93;;;;;;;;;;5093812;28;20292;-67
2021/12/24 11:00:20;;;;;;;16.47;9.13;;;;;;;;;;5096965;28;20210;-72
2021/12/24 11:02:52;;;;;;;17.67;10.00;;;;;;;;;;5094994;28;20201;-62
2021/12/24 11:05:25;;;;;;;16.63;8.77;;;;;;;;;;5096909;28;20289;-62
2021/12/24 11:07:54;;;;;;;15.73;9.50;;;;;;;;;;5101649;28;20221;-62
2021/12/24 11:10:24;;;;;;;12.07;7.40;;;;;;;;;;5104063;28;20288;-62
2021/12/24 11:12:54;;;;;;;13.33;8.13;;;;;;;;;;5103232;28;20203;-62
2021/12/24 11:15:24;;;;;;;8.67;6.63;;;;;;;;;;5105515;28;20284;-61
2021/12/24 11:17:53;;;;;;;8.60;6.43;;;;;;;;;;5095934;28;20202;-66
2021/12/24 11:20:21;;;;;;;9.70;6.47;;;;;;;;;;5096367;28;20197;-66
2021/12/24 11:22:55;;;;;;;7.83;5.53;;;;;;;;;;5104102;28;20197;-65
2021/12/24 11:25:24;;;;;;;7.37;5.67;;;;;;;;;;5088535;28;20729;-65
2021/12/24 11:27:53;;;;;;;6.60;5.27;;;;;;;;;;5096874;28;20205;-66
2021/12/24 11:30:22;;;;;;;7.27;5.07;;;;;;;;;;5092848;28;20197;-65
2021/12/24 11:32:53;;;;;;;7.33;5.20;;;;;;;;;;5094348;28;20202;-65
2021/12/24 11:35:22;;;;;;;8.20;5.33;;;;;;;;;;5089273;28;20201;-65
2021/12/24 11:37:51;;;;;;;6.57;5.17;;;;;;;;;;5094368;28;20205;-65
2021/12/24 11:40:22;;;;;;;6.43;4.87;;;;;;;;;;5089818;28;20661;-65
2021/12/24 11:42:52;;;;;;;6.70;4.50;;;;;;;;;;5089365;28;20204;-65
2021/12/24 11:45:21;;;;;;;8.03;4.60;;;;;;;;;;5093895;28;20225;-65
2021/12/24 11:47:49;;;;;;;6.67;5.70;;;;;;;;;;5098638;28;20297;-65
2021/12/24 11:50:17;;;;;;;5.87;4.53;;;;;;;;;;5100869;28;20210;-66
2021/12/24 11:52:47;;;;;;;8.07;5.23;;;;;;;;;;5100930;28;20205;-65
2021/12/24 11:55:16;;;;;;;6.83;4.57;;;;;;;;;;5100656;28;20567;-64
2021/12/24 11:57:56;;;;;;;5.70;4.70;;;;;;;;;;5100836;28;20665;-65
2021/12/24 12:00:26;;;;;;;6.63;4.70;;;;;;;;;;5095891;28;20211;-66
2021/12/24 12:02:55;;;;;;;9.13;4.60;;;;;;;;;;5098384;28;20202;-66
2021/12/24 12:05:26;;;;;;;6.00;4.47;;;;;;;;;;5100647;28;20745;-66
2021/12/24 12:08:14;;;;;;;6.07;4.60;;;;;;;;;;5100201;28;20248;-65
2021/12/24 12:10:52;;;;;;;6.33;4.53;;;;;;;;;;5100171;28;20206;-64
2021/12/24 12:13:37;;;;;;;6.73;4.77;;;;;;;;;;5096004;28;20197;-64
2021/12/24 12:16:07;;;;;;;7.20;4.90;;;;;;;;;;5092086;28;20194;-63
2021/12/24 12:18:44;;;;;;;9.00;5.40;;;;;;;;;;5097213;28;20243;-64
2021/12/24 12:21:13;;;;;;;6.87;4.90;;;;;;;;;;5094772;28;20545;-64
2021/12/24 12:23:48;;;;;;;5.87;4.73;;;;;;;;;;5098864;28;20638;-64
2021/12/24 12:26:41;;;;;;;7.77;4.43;;;;;;;;;;5105434;28;20208;-64
2021/12/24 12:29:27;;;;;;;8.53;6.33;;;;;;;;;;5094149;28;20939;-64
2021/12/24 12:31:57;;;;;;;7.77;5.43;;;;;;;;;;5094524;28;20197;-64
2021/12/24 12:34:43;;;;;;;6.87;5.27;;;;;;;;;;5092659;28;20201;-63
2021/12/24 12:37:12;;;;;;;8.07;6.13;;;;;;;;;;5097560;28;20212;-68
2021/12/24 12:39:40;;;;;;;10.03;5.93;;;;;;;;;;5099471;28;20225;-69
2021/12/24 12:42:09;;;;;;;7.57;5.73;;;;;;;;;;5099676;28;20210;-69
2021/12/24 12:44:38;;;;;;;7.23;5.57;;;;;;;;;;5099611;28;20574;-69
2021/12/24 12:47:10;;;;;;;7.83;5.57;;;;;;;;;;5099400;28;20233;-68
2021/12/24 12:49:38;;;;;;;7.93;6.07;;;;;;;;;;5099689;28;20232;-69
2021/12/24 12:52:11;;;;;;;8.77;5.67;;;;;;;;;;5099329;28;20216;-69
2021/12/24 12:54:40;;;;;;;7.97;5.80;;;;;;;;;;5091258;28;20289;-69
2021/12/24 12:57:19;;;;;;;7.97;6.27;;;;;;;;;;5091312;28;20198;-69
2021/12/24 13:00:06;;;;;;;8.30;5.87;;;;;;;;;;5096910;28;20695;-69
2021/12/24 13:02:52;;;;;;;7.53;6.17;;;;;;;;;;5090494;28;20718;-69
2021/12/24 13:05:22;;;;;;;8.97;6.27;;;;;;;;;;5099392;28;20226;-69
2021/12/24 13:07:49;;;;;;;8.17;6.00;;;;;;;;;;5086938;28;20256;-68
2021/12/24 13:10:18;;;;;;;8.53;5.73;;;;;;;;;;5107651;28;20215;-67
2021/12/24 13:12:46;;;;;;;12.13;7.07;;;;;;;;;;5091006;28;20216;-67
2021/12/24 13:15:16;;;;;;;12.63;6.73;;;;;;;;;;5090961;28;20208;-67
2021/12/24 13:17:46;;;;;;;9.10;6.60;;;;;;;;;;5096739;28;20292;-67
2021/12/24 13:20:18;;;;;;;10.70;6.63;;;;;;;;;;5085730;28;20199;-67
2021/12/24 13:22:47;;;;;;;8.00;5.57;;;;;;;;;;5098117;28;20216;-67
2021/12/24 13:25:15;;;;;;;9.70;6.10;;;;;;;;;;5095156;28;20698;-67
2021/12/24 13:27:44;;;;;;;10.17;6.33;;;;;;;;;;5097136;28;20241;-67
2021/12/24 13:30:14;;;;;;;8.80;5.17;;;;;;;;;;5098869;28;20239;-68
2021/12/24 13:32:43;;;;;;;10.23;5.87;;;;;;;;;;5098829;28;20211;-67
2021/12/24 13:35:12;;;;;;;8.27;5.67;;;;;;;;;;5098722;28;20208;-67
2021/12/24 13:37:45;;;;;;;7.80;5.60;;;;;;;;;;5098438;28;20205;-67
2021/12/24 13:40:16;;;;;;;12.43;5.97;;;;;;;;;;5098325;28;20296;-67
2021/12/24 13:42:46;;;;;;;7.33;5.67;;;;;;;;;;5098659;28;20216;-66
2021/12/24 13:45:14;;;;;;;10.33;5.53;;;;;;;;;;5098357;28;20206;-67
2021/12/24 13:56:10;;;;;;;9.33;6.03;;;;;;;;;;5098449;28;20205;-66
2021/12/24 13:58:38;;;;;;;10.00;6.40;;;;;;;;;;5094651;28;20304;-67
2021/12/24 14:01:06;;;;;;;7.57;6.00;;;;;;;;;;5096770;28;20326;-66
2021/12/24 14:03:35;;;;;;;11.23;6.60;;;;;;;;;;5097310;28;20202;-67
2021/12/24 14:06:05;;;;;;;7.40;5.87;;;;;;;;;;5095331;28;20572;-67
2021/12/24 14:08:37;;;;;;;11.27;5.57;;;;;;;;;;5098672;28;20298;-67
2021/12/24 14:11:06;;;;;;;8.23;5.70;;;;;;;;;;5098917;28;20232;-67
2021/12/24 14:13:39;;;;;;;7.53;5.27;;;;;;;;;;5098638;28;20696;-67
2021/12/24 14:16:14;;;;;;;10.20;6.10;;;;;;;;;;5098412;28;20205;-67
2021/12/24 14:18:49;;;;;;;7.73;5.17;;;;;;;;;;5098528;28;20655;-68
2021/12/24 14:24:14;;;;;;;6.90;5.60;;;;;;;;;;5098503;28;20618;-68
2021/12/24 14:26:43;;;;;;;6.87;5.27;;;;;;;;;;5098677;28;20229;-68
2021/12/24 14:29:13;;;;;;;9.63;5.50;;;;;;;;;;5098108;28;20583;-67
2021/12/24 14:31:48;;;;;;;8.30;5.83;;;;;;;;;;5098376;28;20205;-68
2021/12/24 14:34:28;;;;;;;8.77;5.87;;;;;;;;;;5098529;28;20289;-68
2021/12/24 14:36:59;;;;;;;8.63;6.17;;;;;;;;;;5098680;28;20284;-68
2021/12/24 14:39:34;;;;;;;13.10;7.67;;;;;;;;;;5098383;28;20230;-67
2021/12/24 14:42:08;;;;;;;10.37;6.57;;;;;;;;;;5085750;28;20208;-68
2021/12/24 14:44:38;;;;;;;10.53;7.10;;;;;;;;;;5098315;28;20215;-68
2021/12/24 14:47:06;;;;;;;8.77;5.67;;;;;;;;;;5098382;28;20696;-68
2021/12/24 14:49:35;;;;;;;8.87;5.90;;;;;;;;;;5098312;28;20221;-68
2021/12/24 14:52:19;;;;;;;8.57;6.83;;;;;;;;;;5098059;28;20210;-68
2021/12/24 14:55:07;;;;;;;12.10;7.13;;;;;;;;;;5098157;28;20208;-67
2021/12/24 14:57:43;;;;;;;10.37;7.07;;;;;;;;;;5096274;28;20205;-67
2021/12/24 15:00:14;;;;;;;10.37;7.17;;;;;;;;;;5111833;28;20200;-68
2021/12/24 15:02:43;;;;;;;8.87;6.47;;;;;;;;;;5098237;28;20205;-68
2021/12/24 15:05:11;;;;;;;12.27;7.50;;;;;;;;;;5097840;28;20201;-68
2021/12/24 15:07:39;;;;;;;10.07;6.47;;;;;;;;;;5098123;28;20233;-68
2021/12/24 15:10:09;;;;;;;10.83;6.07;;;;;;;;;;5097942;28;20669;-68
2021/12/24 15:12:45;;;;;;;10.23;6.17;;;;;;;;;;5097984;28;20212;-68
2021/12/24 15:15:15;;;;;;;10.63;6.40;;;;;;;;;;5097726;28;20205;-68
2021/12/24 15:17:44;;;;;;;10.47;6.83;;;;;;;;;;5097830;28;20209;-68
2021/12/24 15:20:12;;;;;;;10.50;6.30;;;;;;;;;;5097976;28;20205;-68
2021/12/24 15:22:40;;;;;;;9.33;6.00;;;;;;;;;;5097401;28;20212;-68
2021/12/24 15:25:10;;;;;;;9.67;6.60;;;;;;;;;;5097405;28;20215;-67
2021/12/24 15:27:38;;;;;;;10.73;7.40;;;;;;;;;;5097557;28;20226;-67
2021/12/24 15:30:07;;;;;;;9.17;6.57;;;;;;;;;;5097367;28;20204;-68
2021/12/24 15:32:37;;;;;;;12.10;6.83;;;;;;;;;;5097440;28;20723;-68
2021/12/24 15:35:06;;;;;;;11.63;7.57;;;;;;;;;;5097741;28;20213;-67
2021/12/24 15:37:34;;;;;;;10.57;5.90;;;;;;;;;;5097548;28;20538;-68
2021/12/24 15:40:02;;;;;;;9.43;5.63;;;;;;;;;;5097615;28;20225;-67
2021/12/24 15:42:30;;;;;;;9.60;6.60;;;;;;;;;;5097574;28;20607;-67
2021/12/24 15:44:58;;;;;;;12.30;7.63;;;;;;;;;;5097530;28;20219;-68
2021/12/24 15:47:26;;;;;;;9.80;6.47;;;;;;;;;;5097518;28;20268;-67
2021/12/24 15:49:55;;;;;;;10.27;6.43;;;;;;;;;;5097584;28;20226;-68
2021/12/24 15:52:23;;;;;;;8.47;6.90;;;;;;;;;;5097354;28;20690;-68
2021/12/24 15:54:52;;;;;;;10.90;7.00;;;;;;;;;;5097285;28;20540;-67
2021/12/24 15:57:20;;;;;;;9.97;6.67;;;;;;;;;;5097062;28;20680;-67
2021/12/24 15:59:48;;;;;;;9.77;7.43;;;;;;;;;;5107726;28;20235;-67
2021/12/24 16:02:16;;;;;;;10.80;7.63;;;;;;;;;;5099927;28;20653;-67
2021/12/24 16:04:44;;;;;;;11.33;7.13;;;;;;;;;;5097529;28;20205;-67
2021/12/24 16:07:14;;;;;;;10.77;6.63;;;;;;;;;;5097114;28;20574;-68
2021/12/24 16:09:42;;;;;;;10.63;7.27;;;;;;;;;;5097589;28;20228;-68
2021/12/24 16:12:11;;;;;;;11.47;7.30;;;;;;;;;;5093994;28;20208;-68
2021/12/24 16:14:39;;;;;;;10.50;7.50;;;;;;;;;;5096560;28;20899;-67
2021/12/24 16:17:07;;;;;;;9.07;5.63;;;;;;;;;;5097209;28;20208;-68
2021/12/24 16:19:35;;;;;;;7.10;5.10;;;;;;;;;;5096912;28;20587;-67
2021/12/24 16:22:05;;;;;;;8.37;6.40;;;;;;;;;;5096872;28;20220;-67
2021/12/24 16:24:34;;;;;;;12.40;6.50;;;;;;;;;;5097082;28;20204;-68
2021/12/24 16:27:02;;;;;;;12.63;6.00;;;;;;;;;;5096684;28;20584;-68
2021/12/24 16:29:45;;;;;;;9.00;5.63;;;;;;;;;;5096631;28;20228;-68